createdAt,value
2022-11-10T00:00:44.751Z,4.30
2022-11-10T00:03:18.456Z,4.30
2022-11-10T00:05:49.404Z,4.40
2022-11-10T00:08:20.070Z,4.40
2022-11-10T00:11:11.416Z,4.38
2022-11-10T00:13:58.924Z,4.40
2022-11-10T00:16:45.834Z,4.40
2022-11-10T00:19:15.164Z,4.50
2022-11-10T00:21:44.317Z,4.50
2022-11-10T00:24:12.109Z,4.50
2022-11-10T00:26:42.452Z,4.58
2022-11-10T00:29:10.680Z,4.60
2022-11-10T00:31:41.545Z,4.52
2022-11-10T00:34:16.894Z,4.58
2022-11-10T00:36:46.264Z,4.60
2022-11-10T00:39:22.983Z,4.60
2022-11-10T00:41:50.952Z,4.60
2022-11-10T00:44:22.765Z,4.60
2022-11-10T00:46:51.473Z,4.52
2022-11-10T00:49:21.300Z,4.50
2022-11-10T00:52:03.400Z,4.40
2022-11-10T00:54:31.823Z,4.40
2022-11-10T00:57:00.807Z,4.40
2022-11-10T00:59:32.828Z,4.34
2022-11-10T01:02:00.609Z,4.30
2022-11-10T01:04:29.527Z,4.30
2022-11-10T01:06:57.590Z,4.30
2022-11-10T01:09:25.855Z,4.40
2022-11-10T01:11:58.604Z,4.30
2022-11-10T01:14:26.502Z,4.20
2022-11-10T01:16:55.822Z,4.12
2022-11-10T01:19:24.369Z,4.10
2022-11-10T01:21:53.058Z,4.10
2022-11-10T01:24:24.219Z,4.10
2022-11-10T01:26:55.833Z,4.10
2022-11-10T01:29:24.324Z,4.00
2022-11-10T01:31:52.145Z,4.00
2022-11-10T01:34:20.499Z,4.00
2022-11-10T01:36:54.972Z,4.00
2022-11-10T01:39:28.280Z,4.00
2022-11-10T01:41:56.090Z,4.00
2022-11-10T01:44:26.547Z,3.90
2022-11-10T01:46:55.389Z,4.00
2022-11-10T01:49:27.555Z,4.10
2022-11-10T01:52:08.443Z,4.14
2022-11-10T01:54:46.501Z,4.16
2022-11-10T01:57:20.434Z,4.10
2022-11-10T01:59:52.109Z,4.14
2022-11-10T02:02:30.823Z,4.10
2022-11-10T02:05:03.905Z,4.08
2022-11-10T02:07:36.969Z,4.10
2022-11-10T02:10:16.473Z,4.10
2022-11-10T02:12:47.692Z,4.18
2022-11-10T02:15:19.807Z,4.10
2022-11-10T02:17:54.629Z,4.10
2022-11-10T02:20:23.508Z,4.20
2022-11-10T02:22:53.179Z,4.20
2022-11-10T02:25:27.649Z,4.20
2022-11-10T02:27:57.142Z,4.24
2022-11-10T02:30:27.815Z,4.30
2022-11-10T02:32:56.711Z,4.30
2022-11-10T02:35:25.344Z,4.40
2022-11-10T02:37:53.910Z,4.30
2022-11-10T02:40:22.049Z,4.30
2022-11-10T02:42:51.091Z,4.20
2022-11-10T02:45:24.308Z,4.20
2022-11-10T02:47:52.148Z,4.10
2022-11-10T02:50:20.487Z,4.10
2022-11-10T02:52:53.980Z,4.00
2022-11-10T02:55:25.852Z,3.92
2022-11-10T02:57:54.055Z,3.90
2022-11-10T03:00:23.535Z,3.90
2022-11-10T03:03:05.191Z,3.90
2022-11-10T03:05:35.358Z,3.80
2022-11-10T03:08:06.083Z,3.80
2022-11-10T03:10:35.536Z,3.70
2022-11-10T03:13:07.670Z,3.70
2022-11-10T03:15:37.884Z,3.62
2022-11-10T03:18:09.783Z,3.60
2022-11-10T03:20:38.090Z,3.70
2022-11-10T03:23:08.339Z,3.70
2022-11-10T03:25:39.507Z,3.74
2022-11-10T03:28:09.458Z,3.78
2022-11-10T03:30:40.118Z,3.80
2022-11-10T03:33:10.832Z,3.80
2022-11-10T03:35:40.463Z,3.80
2022-11-10T03:38:09.256Z,3.80
2022-11-10T03:40:56.874Z,3.80
2022-11-10T03:43:25.977Z,3.80
2022-11-10T03:45:53.922Z,3.80
2022-11-10T03:48:24.677Z,3.70
2022-11-10T03:50:54.588Z,3.60
2022-11-10T03:53:22.743Z,3.60
2022-11-10T03:55:51.303Z,3.60
2022-11-10T03:58:20.601Z,3.68
2022-11-10T04:00:48.608Z,3.70
2022-11-10T04:03:18.175Z,3.70
2022-11-10T04:06:05.673Z,3.80
2022-11-10T04:08:53.997Z,3.80
2022-11-10T04:11:46.176Z,3.90
2022-11-10T04:14:37.697Z,3.90
2022-11-10T04:17:07.557Z,3.90
2022-11-10T04:19:38.908Z,3.80
2022-11-10T04:22:07.184Z,3.78
2022-11-10T04:24:39.141Z,3.72
2022-11-10T04:27:08.496Z,3.80
2022-11-10T04:29:40.060Z,3.76
2022-11-10T04:32:07.895Z,3.70
2022-11-10T04:34:35.735Z,3.70
2022-11-10T04:37:04.039Z,3.68
2022-11-10T04:39:32.218Z,3.60
2022-11-10T04:42:02.695Z,3.60
2022-11-10T04:44:31.918Z,3.70
2022-11-10T04:47:00.019Z,3.70
2022-11-10T04:49:29.055Z,3.70
2022-11-10T04:51:57.017Z,3.80
2022-11-10T04:54:27.887Z,3.80
2022-11-10T04:56:56.055Z,3.90
2022-11-10T04:59:24.542Z,3.90
2022-11-10T05:01:55.771Z,3.90
2022-11-10T05:04:26.061Z,3.80
2022-11-10T05:06:55.412Z,3.80
2022-11-10T05:09:25.423Z,3.80
2022-11-10T05:11:53.859Z,3.82
2022-11-10T05:14:22.719Z,3.80
2022-11-10T05:16:50.641Z,3.90
2022-11-10T05:19:21.557Z,4.00
2022-11-10T05:21:49.896Z,4.00
2022-11-10T05:24:19.373Z,4.00
2022-11-10T05:26:47.091Z,4.00
2022-11-10T05:29:15.343Z,4.00
2022-11-10T05:31:49.088Z,3.90
2022-11-10T05:34:22.710Z,3.90
2022-11-10T05:36:51.520Z,3.90
2022-11-10T05:39:19.619Z,3.90
2022-11-10T05:41:47.375Z,3.90
2022-11-10T05:44:16.071Z,3.90
2022-11-10T05:46:48.889Z,3.90
2022-11-10T05:49:18.385Z,3.90
2022-11-10T05:51:46.818Z,3.92
2022-11-10T05:54:16.442Z,4.00
2022-11-10T05:56:44.284Z,3.94
2022-11-10T05:59:12.869Z,3.90
2022-11-10T06:01:41.311Z,3.90
2022-11-10T06:04:09.719Z,3.90
2022-11-10T06:06:38.863Z,3.90
2022-11-10T06:09:08.248Z,3.90
2022-11-10T06:11:36.904Z,3.90
2022-11-10T06:14:06.059Z,3.90
2022-11-10T06:16:38.144Z,3.88
2022-11-10T06:19:09.286Z,3.90
2022-11-10T06:24:23.048Z,3.80
2022-11-10T06:26:52.123Z,3.80
2022-11-10T06:29:26.563Z,3.80
2022-11-10T06:31:55.920Z,3.78
2022-11-10T06:34:24.900Z,3.80
2022-11-10T06:36:52.817Z,3.80
2022-11-10T06:39:22.085Z,3.80
2022-11-10T06:41:51.909Z,3.80
2022-11-10T06:44:20.188Z,3.90
2022-11-10T06:46:48.236Z,3.90
2022-11-10T06:49:16.263Z,3.90
2022-11-10T06:51:45.090Z,3.90
2022-11-10T06:54:16.088Z,4.00
2022-11-10T06:56:45.201Z,4.00
2022-11-10T06:59:15.140Z,4.00
2022-11-10T07:01:48.807Z,4.00
2022-11-10T07:04:20.376Z,4.10
2022-11-10T07:06:53.003Z,4.10
2022-11-10T07:09:22.583Z,4.10
2022-11-10T07:11:52.109Z,4.20
2022-11-10T07:14:21.819Z,4.20
2022-11-10T07:16:52.174Z,4.30
2022-11-10T07:19:20.917Z,4.30
2022-11-10T07:21:50.175Z,4.30
2022-11-10T07:24:21.730Z,4.30
2022-11-10T07:26:52.229Z,4.20
2022-11-10T07:29:21.046Z,4.24
2022-11-10T07:31:49.290Z,4.28
2022-11-10T07:34:17.388Z,4.30
2022-11-10T07:36:45.543Z,4.20
2022-11-10T07:39:16.970Z,4.20
2022-11-10T07:41:48.738Z,4.18
2022-11-10T07:44:19.395Z,4.20
2022-11-10T07:46:47.800Z,4.28
2022-11-10T07:49:16.197Z,4.30
2022-11-10T07:51:52.332Z,4.20
2022-11-10T07:54:22.398Z,4.30
2022-11-10T07:56:57.084Z,4.30
2022-11-10T07:59:25.090Z,4.40
2022-11-10T08:01:55.738Z,4.40
2022-11-10T08:04:23.861Z,4.40
2022-11-10T08:06:52.096Z,4.40
2022-11-10T08:09:20.624Z,4.40
2022-11-10T08:11:49.271Z,4.40
2022-11-10T08:14:17.500Z,4.50
2022-11-10T08:16:46.402Z,4.50
2022-11-10T08:19:14.728Z,4.50
2022-11-10T08:21:43.877Z,4.50
2022-11-10T08:24:12.469Z,4.50
2022-11-10T08:26:40.978Z,4.50
2022-11-10T08:29:20.329Z,4.50
2022-11-10T08:31:52.332Z,4.40
2022-11-10T08:34:23.275Z,4.40
2022-11-10T08:36:54.307Z,4.46
2022-11-10T08:39:37.997Z,4.50
2022-11-10T08:42:09.904Z,4.50
2022-11-10T08:44:40.493Z,4.50
2022-11-10T08:47:10.727Z,4.50
2022-11-10T08:49:40.560Z,4.60
2022-11-10T08:52:10.761Z,4.60
2022-11-10T08:54:40.134Z,4.66
2022-11-10T08:57:09.698Z,4.70
2022-11-10T08:59:38.210Z,4.70
2022-11-10T09:02:10.640Z,4.70
2022-11-10T09:04:40.148Z,4.70
2022-11-10T09:07:09.098Z,4.68
2022-11-10T09:09:36.891Z,4.60
2022-11-10T09:12:07.807Z,4.60
2022-11-10T09:14:43.100Z,4.60
2022-11-10T09:17:12.916Z,4.60
2022-11-10T09:19:41.663Z,4.68
2022-11-10T09:22:10.844Z,4.70
2022-11-10T09:24:41.911Z,4.74
2022-11-10T09:27:10.042Z,4.80
2022-11-10T09:29:39.021Z,4.80
2022-11-10T09:32:07.589Z,4.80
2022-11-10T09:34:36.768Z,4.80
2022-11-10T09:37:05.115Z,4.80
2022-11-10T09:39:40.172Z,4.90
2022-11-10T09:42:30.484Z,4.90
2022-11-10T09:45:18.006Z,5.00
2022-11-10T09:48:02.017Z,5.10
2022-11-10T09:50:49.621Z,5.20
2022-11-10T09:53:31.225Z,5.18
2022-11-10T09:56:05.985Z,5.10
2022-11-10T09:58:44.899Z,5.10
2022-11-10T10:01:26.779Z,5.10
2022-11-10T10:04:13.006Z,5.10
2022-11-10T10:07:11.755Z,5.10
2022-11-10T10:09:42.183Z,5.20
2022-11-10T10:12:25.892Z,5.20
2022-11-10T10:15:26.045Z,5.20
2022-11-10T10:18:23.955Z,5.20
2022-11-10T10:21:22.970Z,5.28
2022-11-10T10:24:09.429Z,5.30
2022-11-10T10:26:58.009Z,5.30
2022-11-10T10:29:43.517Z,5.30
2022-11-10T10:32:15.083Z,5.30
2022-11-10T10:34:45.767Z,5.40
2022-11-10T10:37:41.556Z,5.40
2022-11-10T10:40:21.790Z,5.42
2022-11-10T10:42:52.027Z,5.50
2022-11-10T10:45:31.286Z,5.50
2022-11-10T10:48:01.873Z,5.50
2022-11-10T10:50:37.101Z,5.60
2022-11-10T10:53:19.555Z,5.60
2022-11-10T10:56:06.161Z,5.70
2022-11-10T10:58:54.365Z,5.70
2022-11-10T11:01:33.037Z,5.70
2022-11-10T11:04:28.085Z,5.70
2022-11-10T11:07:23.879Z,5.80
2022-11-10T11:09:52.801Z,5.80
2022-11-10T11:12:21.836Z,5.80
2022-11-10T11:14:49.784Z,5.90
2022-11-10T11:17:25.198Z,5.90
2022-11-10T11:20:00.001Z,5.94
2022-11-10T11:22:57.450Z,5.94
2022-11-10T11:25:37.834Z,5.90
2022-11-10T11:28:30.262Z,5.90
2022-11-10T11:31:31.114Z,5.90
2022-11-10T11:34:37.917Z,6.00
2022-11-10T11:37:43.072Z,6.04
2022-11-10T11:40:30.126Z,6.10
2022-11-10T11:43:55.104Z,6.20
2022-11-10T11:47:09.979Z,6.20
2022-11-10T11:50:07.797Z,6.30
2022-11-10T11:52:54.652Z,6.30
2022-11-10T11:55:59.125Z,6.40
2022-11-10T11:58:59.576Z,6.50
2022-11-10T12:01:33.728Z,6.50
2022-11-10T12:04:37.240Z,6.60
2022-11-10T12:07:36.035Z,6.70
2022-11-10T12:10:42.862Z,6.80
2022-11-10T12:14:08.587Z,6.90
2022-11-10T12:16:39.515Z,6.96
2022-11-10T12:19:35.928Z,7.00
2022-11-10T12:22:44.395Z,7.00
2022-11-10T12:25:49.727Z,7.00
2022-11-10T12:28:52.824Z,7.10
2022-11-10T12:31:24.746Z,7.10
2022-11-10T12:34:48.866Z,7.20
2022-11-10T12:37:31.404Z,7.20
2022-11-10T12:40:15.583Z,7.20
2022-11-10T12:42:58.477Z,7.10
2022-11-10T12:45:33.812Z,7.16
2022-11-10T12:48:05.321Z,7.20
2022-11-10T12:50:53.179Z,7.20
2022-11-10T12:53:47.054Z,7.20
2022-11-10T12:56:30.565Z,7.20
2022-11-10T12:59:38.037Z,7.24
2022-11-10T13:03:01.066Z,7.30
2022-11-10T13:05:42.716Z,7.20
2022-11-10T13:08:35.912Z,7.30
2022-11-10T13:11:18.862Z,7.30
2022-11-10T13:14:05.260Z,7.30
2022-11-10T13:16:42.945Z,7.22
2022-11-10T13:19:33.737Z,7.24
2022-11-10T13:22:01.635Z,7.20
2022-11-10T13:24:34.663Z,7.20
2022-11-10T13:27:46.756Z,7.26
2022-11-10T13:30:49.558Z,7.30
2022-11-10T13:33:39.216Z,7.30
2022-11-10T13:36:13.178Z,7.30
2022-11-10T13:38:45.762Z,7.34
2022-11-10T13:41:25.144Z,7.40
2022-11-10T13:43:57.937Z,7.40
2022-11-10T13:46:45.783Z,7.40
2022-11-10T13:49:38.392Z,7.40
2022-11-10T13:52:23.052Z,7.50
2022-11-10T13:55:14.742Z,7.50
2022-11-10T13:58:07.680Z,7.50
2022-11-10T14:00:39.563Z,7.50
2022-11-10T14:03:46.639Z,7.50
2022-11-10T14:06:29.464Z,7.50
2022-11-10T14:09:06.937Z,7.50
2022-11-10T14:11:50.127Z,7.58
2022-11-10T14:14:36.841Z,7.60
2022-11-10T14:17:24.125Z,7.60
2022-11-10T14:19:53.308Z,7.70
2022-11-10T14:22:42.770Z,7.70
2022-11-10T14:25:43.006Z,7.70
2022-11-10T14:28:34.178Z,7.70
2022-11-10T14:31:02.426Z,7.70
2022-11-10T14:33:30.831Z,7.70
2022-11-10T14:36:09.005Z,7.70
2022-11-10T14:38:45.333Z,7.70
2022-11-10T14:41:21.879Z,7.70
2022-11-10T14:44:13.233Z,7.70
2022-11-10T14:46:43.255Z,7.70
2022-11-10T14:49:23.076Z,7.80
2022-11-10T14:52:00.190Z,7.90
2022-11-10T14:54:29.984Z,8.00
2022-11-10T14:56:57.824Z,8.02
2022-11-10T14:59:29.040Z,8.10
2022-11-10T15:02:04.635Z,8.10
2022-11-10T15:04:37.214Z,8.10
2022-11-10T15:07:06.802Z,8.10
2022-11-10T15:09:36.014Z,8.02
2022-11-10T15:12:04.264Z,8.10
2022-11-10T15:15:16.731Z,8.10
2022-11-10T15:17:53.719Z,8.10
2022-11-10T15:20:41.872Z,8.10
2022-11-10T15:23:37.628Z,8.10
2022-11-10T15:26:16.302Z,8.10
2022-11-10T15:28:47.841Z,8.10
2022-11-10T15:31:33.214Z,8.10
2022-11-10T15:34:05.746Z,8.20
2022-11-10T15:36:41.469Z,8.20
2022-11-10T15:39:13.130Z,8.30
2022-11-10T15:41:50.286Z,8.30
2022-11-10T15:44:29.020Z,8.30
2022-11-10T15:46:59.647Z,8.30
2022-11-10T15:49:37.576Z,8.30
2022-11-10T15:52:27.231Z,8.30
2022-11-10T15:54:55.921Z,8.30
2022-11-10T15:57:24.415Z,8.30
2022-11-10T15:59:53.788Z,8.30
2022-11-10T16:02:28.748Z,8.30
2022-11-10T16:05:00.036Z,8.40
2022-11-10T16:07:28.963Z,8.40
2022-11-10T16:10:01.047Z,8.36
2022-11-10T16:12:30.185Z,8.40
2022-11-10T16:14:59.758Z,8.40
2022-11-10T16:17:31.625Z,8.40
2022-11-10T16:20:01.233Z,8.40
2022-11-10T16:22:29.606Z,8.40
2022-11-10T16:24:57.713Z,8.50
2022-11-10T16:27:34.439Z,8.52
2022-11-10T16:30:03.032Z,8.60
2022-11-10T16:32:35.445Z,8.70
2022-11-10T16:35:06.860Z,8.74
2022-11-10T16:37:37.499Z,8.86
2022-11-10T16:40:21.249Z,9.00
2022-11-10T16:42:51.360Z,9.10
2022-11-10T16:45:30.845Z,9.22
2022-11-10T16:47:59.380Z,9.30
2022-11-10T16:50:34.823Z,9.40
2022-11-10T16:53:13.439Z,9.50
2022-11-10T16:55:47.201Z,9.60
2022-11-10T16:58:15.207Z,9.70
2022-11-10T17:00:47.877Z,9.72
2022-11-10T17:03:29.440Z,9.80
2022-11-10T17:06:02.036Z,9.90
2022-11-10T17:08:37.717Z,10.00
2022-11-10T17:11:07.840Z,10.04
2022-11-10T17:13:40.648Z,10.10
2022-11-10T17:16:25.495Z,10.12
2022-11-10T17:18:55.935Z,10.20
2022-11-10T17:21:32.536Z,10.20
2022-11-10T17:24:05.667Z,10.24
2022-11-10T17:26:34.541Z,10.36
2022-11-10T17:29:04.406Z,10.50
2022-11-10T17:31:32.648Z,10.60
2022-11-10T17:34:03.800Z,10.70
2022-11-10T17:36:34.585Z,10.80
2022-11-10T17:39:02.485Z,10.90
2022-11-10T17:41:31.932Z,10.90
2022-11-10T17:44:01.287Z,11.08
2022-11-10T17:46:29.102Z,11.10
2022-11-10T17:49:02.576Z,11.28
2022-11-10T17:51:33.790Z,11.40
2022-11-10T17:54:07.652Z,11.50
2022-11-10T17:56:46.840Z,11.52
2022-11-10T17:59:14.908Z,11.60
2022-11-10T18:01:43.118Z,11.66
2022-11-10T18:04:15.324Z,11.70
2022-11-10T18:06:45.479Z,11.72
2022-11-10T18:09:14.538Z,11.74
2022-11-10T18:11:42.788Z,11.74
2022-11-10T18:14:15.879Z,11.78
2022-11-10T18:16:53.054Z,11.80
2022-11-10T18:19:29.375Z,11.80
2022-11-10T18:22:01.513Z,11.90
2022-11-10T18:24:34.984Z,11.96
2022-11-10T18:27:02.915Z,12.00
2022-11-10T18:29:35.030Z,12.00
2022-11-10T18:32:05.028Z,12.00
2022-11-10T18:34:35.593Z,12.04
2022-11-10T18:37:20.070Z,12.10
2022-11-10T18:39:48.361Z,12.10
2022-11-10T18:42:21.852Z,12.10
2022-11-10T18:44:58.082Z,12.10
2022-11-10T18:47:27.694Z,12.10
2022-11-10T18:50:11.257Z,12.10
2022-11-10T18:52:41.167Z,12.10
2022-11-10T18:55:13.433Z,12.10
2022-11-10T18:57:44.660Z,12.10
2022-11-10T19:00:13.934Z,12.10
2022-11-10T19:02:50.208Z,12.16
2022-11-10T19:05:23.444Z,12.18
2022-11-10T19:07:53.489Z,12.20
2022-11-10T19:10:26.623Z,12.20
2022-11-10T19:13:00.213Z,12.20
2022-11-10T19:15:29.613Z,12.20
2022-11-10T19:18:00.976Z,12.16
2022-11-10T19:20:31.228Z,12.10
2022-11-10T19:23:03.643Z,12.10
2022-11-10T19:25:32.793Z,12.10
2022-11-10T19:28:05.101Z,12.10
2022-11-10T19:30:35.300Z,12.10
2022-11-10T19:33:03.108Z,12.20
2022-11-10T19:35:34.015Z,12.30
2022-11-10T19:38:02.418Z,12.20
2022-11-10T19:40:32.806Z,12.20
2022-11-10T19:43:01.156Z,12.10
2022-11-10T19:45:30.274Z,12.10
2022-11-10T19:47:59.680Z,12.00
2022-11-10T19:50:34.969Z,12.00
2022-11-10T19:53:04.544Z,12.00
2022-11-10T19:55:34.324Z,11.92
2022-11-10T19:58:02.586Z,11.90
2022-11-10T20:00:30.945Z,11.90
2022-11-10T20:02:58.891Z,11.86
2022-11-10T20:05:27.253Z,11.88
2022-11-10T20:08:16.085Z,12.00
2022-11-10T20:10:50.068Z,12.08
2022-11-10T20:13:19.747Z,12.10
2022-11-10T20:15:50.011Z,12.10
2022-11-10T20:18:17.920Z,12.10
2022-11-10T20:20:46.556Z,12.18
2022-11-10T20:23:16.393Z,12.20
2022-11-10T20:25:44.799Z,12.20
2022-11-10T20:28:15.137Z,12.32
2022-11-10T20:30:46.860Z,12.50
2022-11-10T20:33:19.674Z,12.60
2022-11-10T20:35:48.190Z,12.60
2022-11-10T20:38:20.004Z,12.70
2022-11-10T20:40:50.022Z,12.80
2022-11-10T20:43:18.576Z,12.90
2022-11-10T20:45:47.101Z,12.80
2022-11-10T20:48:18.352Z,12.80
2022-11-10T20:50:46.500Z,12.72
2022-11-10T20:53:14.823Z,12.70
2022-11-10T20:55:53.481Z,12.70
2022-11-10T20:58:21.954Z,12.60
2022-11-10T21:00:50.455Z,12.64
2022-11-10T21:03:19.301Z,12.70
2022-11-10T21:05:55.485Z,12.80
2022-11-10T21:08:27.125Z,12.90
2022-11-10T21:11:02.900Z,12.90
2022-11-10T21:13:32.260Z,12.80
2022-11-10T21:16:05.427Z,12.74
2022-11-10T21:18:37.647Z,12.70
2022-11-10T21:21:45.208Z,12.80
2022-11-10T21:24:14.611Z,12.80
2022-11-10T21:26:42.626Z,12.90
2022-11-10T21:29:11.787Z,12.90
2022-11-10T21:31:39.643Z,12.90
2022-11-10T21:34:07.868Z,12.96
2022-11-10T21:36:36.469Z,12.98
2022-11-10T21:39:08.292Z,13.00
2022-11-10T21:41:51.157Z,13.00
2022-11-10T21:44:22.284Z,13.00
2022-11-10T21:46:51.420Z,13.10
2022-11-10T21:49:22.635Z,13.10
2022-11-10T21:51:53.988Z,13.10
2022-11-10T21:54:26.538Z,13.18
2022-11-10T21:56:55.394Z,13.20
2022-11-10T21:59:24.643Z,13.20
2022-11-10T22:01:55.982Z,13.20
2022-11-10T22:04:25.045Z,13.20
2022-11-10T22:07:14.278Z,13.10
2022-11-10T22:10:03.176Z,13.10
2022-11-10T22:12:51.108Z,13.10
2022-11-10T22:15:39.670Z,13.00
2022-11-10T22:18:37.164Z,13.06
2022-11-10T22:21:08.161Z,13.02
2022-11-10T22:24:05.101Z,13.00
2022-11-10T22:26:39.233Z,13.02
2022-11-10T22:29:08.458Z,13.06
2022-11-10T22:31:39.183Z,13.10
2022-11-10T22:34:09.478Z,13.10
2022-11-10T22:36:40.144Z,13.10
2022-11-10T22:39:11.809Z,13.10
2022-11-10T22:41:58.897Z,13.12
2022-11-10T22:44:28.596Z,13.18
2022-11-10T22:46:56.613Z,13.20
2022-11-10T22:49:28.173Z,13.20
2022-11-10T22:51:58.552Z,13.20
2022-11-10T22:54:27.217Z,13.30
2022-11-10T22:56:56.231Z,13.30
2022-11-10T22:59:25.462Z,13.30
2022-11-10T23:01:53.687Z,13.30
2022-11-10T23:04:21.819Z,13.40
2022-11-10T23:06:50.154Z,13.50
2022-11-10T23:09:21.620Z,13.60
2022-11-10T23:11:49.479Z,13.70
2022-11-10T23:14:18.298Z,13.74
2022-11-10T23:16:46.662Z,13.80
2022-11-10T23:19:15.839Z,13.90
2022-11-10T23:21:45.217Z,14.00
2022-11-10T23:24:14.189Z,14.10
2022-11-10T23:26:43.776Z,14.10
2022-11-10T23:29:14.234Z,14.10
2022-11-10T23:31:43.073Z,14.10
2022-11-10T23:34:10.992Z,14.10
2022-11-10T23:36:41.938Z,14.10
2022-11-10T23:39:10.095Z,14.00
2022-11-10T23:41:38.281Z,14.00
2022-11-10T23:44:08.934Z,14.00
2022-11-10T23:46:38.497Z,14.10
2022-11-10T23:49:08.755Z,14.10
2022-11-10T23:51:36.933Z,14.04
2022-11-10T23:54:13.609Z,14.00
2022-11-10T23:56:42.595Z,13.90
2022-11-10T23:59:10.984Z,13.90
